createdAt,value
2019-02-18T00:00:49.847Z,101592.66
2019-02-18T00:03:18.227Z,101591.34
2019-02-18T00:05:46.480Z,101589.48
2019-02-18T00:08:14.770Z,101583.53
2019-02-18T00:10:43.049Z,101600.31
2019-02-18T00:13:11.306Z,101598.42
2019-02-18T00:15:39.618Z,101595.16
2019-02-18T00:18:07.980Z,101595.16
2019-02-18T00:20:36.396Z,101594.95
2019-02-18T00:23:04.664Z,101601.20
2019-02-18T00:25:32.925Z,101601.20
2019-02-18T00:28:01.206Z,101600.95
2019-02-18T00:30:29.539Z,101603.66
2019-02-18T00:32:57.937Z,101610.09
2019-02-18T00:35:26.191Z,101610.09
2019-02-18T00:37:54.440Z,101605.55
2019-02-18T00:40:22.714Z,101606.89
2019-02-18T00:42:50.978Z,101600.40
2019-02-18T00:45:19.346Z,101607.98
2019-02-18T00:47:48.206Z,101608.50
2019-02-18T00:50:16.604Z,101608.50
2019-02-18T00:52:44.874Z,101605.48
2019-02-18T00:55:13.167Z,101605.48
2019-02-18T00:57:41.432Z,101608.95
2019-02-18T01:00:16.596Z,101607.55
2019-02-18T01:02:44.862Z,101607.48
2019-02-18T01:05:13.433Z,101602.36
2019-02-18T01:07:41.689Z,101609.28
2019-02-18T01:10:13.342Z,101609.28
2019-02-18T01:12:41.698Z,101615.70
2019-02-18T01:15:12.973Z,101615.70
2019-02-18T01:17:41.695Z,101620.73
2019-02-18T01:20:12.113Z,101620.73
2019-02-18T01:22:40.400Z,101615.81
2019-02-18T01:25:11.165Z,101615.81
2019-02-18T01:27:39.444Z,101617.39
2019-02-18T01:30:10.838Z,101614.88
2019-02-18T01:32:39.144Z,101617.78
2019-02-18T01:35:07.466Z,101617.50
2019-02-18T01:37:45.282Z,101617.50
2019-02-18T01:40:08.963Z,101614.47
2019-02-18T01:42:37.220Z,101614.47
2019-02-18T01:45:08.066Z,101612.55
2019-02-18T01:47:36.345Z,101607.34
2019-02-18T01:50:07.293Z,101614.05
2019-02-18T01:52:35.582Z,101609.95
2019-02-18T01:55:03.895Z,101606.98
2019-02-18T01:57:32.194Z,101606.98
2019-02-18T02:00:01.215Z,101603.17
2019-02-18T02:02:29.678Z,101602.57
2019-02-18T02:04:58.009Z,101603.37
2019-02-18T02:07:26.261Z,101603.37
2019-02-18T02:09:54.570Z,101598.50
2019-02-18T02:12:22.846Z,101606.53
2019-02-18T02:14:52.791Z,101605.70
2019-02-18T02:17:21.049Z,101608.89
2019-02-18T02:19:50.554Z,101601.57
2019-02-18T02:22:18.839Z,101608.82
2019-02-18T02:24:47.207Z,101599.94
2019-02-18T02:27:15.510Z,101600.22
2019-02-18T02:29:43.797Z,101599.14
2019-02-18T02:32:12.610Z,101594.85
2019-02-18T02:34:40.944Z,101596.45
2019-02-18T02:37:09.283Z,101590.31
2019-02-18T02:39:37.534Z,101586.55
2019-02-18T02:42:05.817Z,101587.34
2019-02-18T02:44:34.112Z,101581.43
2019-02-18T02:47:02.519Z,101581.43
2019-02-18T02:49:30.809Z,101585.97
2019-02-18T02:51:59.168Z,101585.97
2019-02-18T02:54:27.454Z,101588.11
2019-02-18T02:56:55.712Z,101580.27
2019-02-18T02:59:23.989Z,101575.41
2019-02-18T03:01:52.237Z,101578.93
2019-02-18T03:04:20.510Z,101578.35
2019-02-18T03:06:48.763Z,101579.63
2019-02-18T03:09:17.410Z,101573.16
2019-02-18T03:11:45.747Z,101575.84
2019-02-18T03:14:13.987Z,101577.95
2019-02-18T03:16:42.549Z,101577.70
2019-02-18T03:19:10.809Z,101582.37
2019-02-18T03:21:39.054Z,101582.37
2019-02-18T03:24:07.394Z,101587.75
2019-02-18T03:26:35.638Z,101585.53
2019-02-18T03:29:31.114Z,101585.53
2019-02-18T03:31:59.428Z,101578.24
2019-02-18T03:34:30.939Z,101584.95
2019-02-18T03:36:59.283Z,101585.96
2019-02-18T03:39:27.628Z,101582.70
2019-02-18T03:41:55.935Z,101579.47
2019-02-18T03:44:24.184Z,101581.53
2019-02-18T03:46:52.445Z,101579.34
2019-02-18T03:49:20.822Z,101581.99
2019-02-18T03:51:49.076Z,101583.34
2019-02-18T03:54:17.366Z,101583.63
2019-02-18T03:56:45.647Z,101589.24
2019-02-18T03:59:13.895Z,101589.24
2019-02-18T04:01:42.181Z,101589.45
2019-02-18T04:04:10.569Z,101579.52
2019-02-18T04:06:38.837Z,101586.52
2019-02-18T04:09:07.223Z,101586.52
2019-02-18T04:11:35.464Z,101581.66
2019-02-18T04:14:03.727Z,101588.91
2019-02-18T04:16:32.024Z,101585.64
2019-02-18T04:19:00.276Z,101580.83
2019-02-18T04:21:28.543Z,101590.97
2019-02-18T04:23:56.851Z,101585.09
2019-02-18T04:26:25.096Z,101588.07
2019-02-18T04:28:53.360Z,101588.29
2019-02-18T04:31:21.689Z,101589.37
2019-02-18T04:33:49.967Z,101590.71
2019-02-18T04:36:18.286Z,101580.24
2019-02-18T04:38:53.889Z,101594.23
2019-02-18T04:41:16.937Z,101589.16
2019-02-18T04:43:45.249Z,101593.98
2019-02-18T04:46:13.511Z,101588.91
2019-02-18T04:48:41.748Z,101587.53
2019-02-18T04:51:10.064Z,101587.23
2019-02-18T04:53:38.436Z,101586.15
2019-02-18T04:56:06.698Z,101583.97
2019-02-18T04:58:35.614Z,101582.09
2019-02-18T05:01:03.889Z,101585.86
2019-02-18T05:03:32.146Z,101585.59
2019-02-18T05:06:00.742Z,101586.36
2019-02-18T05:08:28.982Z,101580.70
2019-02-18T05:10:57.301Z,101568.92
2019-02-18T05:13:25.606Z,101569.97
2019-02-18T05:15:53.853Z,101561.93
2019-02-18T05:18:22.131Z,101566.49
2019-02-18T05:20:50.405Z,101563.23
2019-02-18T05:23:18.692Z,101560.25
2019-02-18T05:25:47.052Z,101555.14
2019-02-18T05:28:16.195Z,101556.48
2019-02-18T05:30:44.446Z,101555.72
2019-02-18T05:33:12.700Z,101554.75
2019-02-18T05:35:41.092Z,101548.05
2019-02-18T05:38:09.346Z,101547.59
2019-02-18T05:40:37.618Z,101541.97
2019-02-18T05:43:05.996Z,101541.47
2019-02-18T05:45:34.391Z,101543.89
2019-02-18T05:48:02.629Z,101546.32
2019-02-18T05:50:30.907Z,101541.72
2019-02-18T05:52:59.246Z,101540.08
2019-02-18T05:55:27.488Z,101545.41
2019-02-18T05:57:55.737Z,101548.59
2019-02-18T06:00:24.078Z,101545.36
2019-02-18T06:02:52.332Z,101554.97
2019-02-18T06:05:20.603Z,101546.38
2019-02-18T06:07:49.547Z,101544.45
2019-02-18T06:10:17.810Z,101550.61
2019-02-18T06:12:46.086Z,101551.08
2019-02-18T06:15:14.354Z,101545.92
2019-02-18T06:17:42.632Z,101553.42
2019-02-18T06:20:10.905Z,101551.75
2019-02-18T06:22:39.232Z,101554.93
2019-02-18T06:25:07.587Z,101553.01
2019-02-18T06:27:35.854Z,101549.99
2019-02-18T06:30:04.339Z,101553.46
2019-02-18T06:32:32.627Z,101551.54
2019-02-18T06:35:01.020Z,101550.98
2019-02-18T06:37:29.271Z,101554.42
2019-02-18T06:39:57.579Z,101559.28
2019-02-18T06:42:25.839Z,101551.48
2019-02-18T06:44:55.739Z,101551.70
2019-02-18T06:47:25.274Z,101559.48
2019-02-18T06:49:53.621Z,101559.95
2019-02-18T06:52:21.890Z,101559.91
2019-02-18T06:54:50.166Z,101566.30
2019-02-18T06:57:25.642Z,101568.39
2019-02-18T06:59:54.404Z,101564.38
2019-02-18T07:02:24.293Z,101562.49
2019-02-18T07:04:54.188Z,101561.40
2019-02-18T07:07:42.044Z,101568.64
2019-02-18T07:10:21.413Z,101570.52
2019-02-18T07:12:49.692Z,101572.91
2019-02-18T07:15:17.961Z,101567.80
2019-02-18T07:17:46.224Z,101567.50
2019-02-18T07:20:14.510Z,101565.33
2019-02-18T07:22:42.804Z,101567.75
2019-02-18T07:25:11.050Z,101565.33
2019-02-18T07:27:39.723Z,101572.32
2019-02-18T07:30:11.248Z,101569.39
2019-02-18T07:32:39.529Z,101569.18
2019-02-18T07:35:07.804Z,101569.73
2019-02-18T07:37:36.087Z,101567.10
2019-02-18T07:40:06.404Z,101562.34
2019-02-18T07:42:34.705Z,101563.25
2019-02-18T07:45:02.969Z,101560.97
2019-02-18T07:47:31.306Z,101549.02
2019-02-18T07:49:59.581Z,101551.83
2019-02-18T07:52:27.946Z,101548.73
2019-02-18T07:54:56.225Z,101544.28
2019-02-18T07:57:24.480Z,101540.92
2019-02-18T07:59:52.724Z,101533.78
2019-02-18T08:02:21.081Z,101537.91
2019-02-18T08:04:49.327Z,101531.86
2019-02-18T08:07:17.586Z,101525.00
2019-02-18T08:09:46.269Z,101529.13
2019-02-18T08:12:14.518Z,101531.63
2019-02-18T08:14:42.772Z,101528.78
2019-02-18T08:17:11.399Z,101533.48
2019-02-18T08:19:39.685Z,101529.56
2019-02-18T08:22:08.059Z,101530.97
2019-02-18T08:24:36.382Z,101537.83
2019-02-18T08:27:04.761Z,101534.42
2019-02-18T08:29:33.019Z,101528.84
2019-02-18T08:32:01.279Z,101520.39
2019-02-18T08:34:29.567Z,101520.39
2019-02-18T08:36:57.803Z,101518.05
2019-02-18T08:39:26.104Z,101502.27
2019-02-18T08:41:54.408Z,101502.27
2019-02-18T08:44:22.655Z,101505.98
2019-02-18T08:46:51.015Z,101504.96
2019-02-18T08:49:19.308Z,101504.96
2019-02-18T08:51:47.588Z,101515.03
2019-02-18T08:54:15.899Z,101515.08
2019-02-18T08:56:44.167Z,101515.08
2019-02-18T08:59:12.445Z,101516.48
2019-02-18T09:01:40.817Z,101513.53
2019-02-18T09:04:09.120Z,101512.77
2019-02-18T09:06:37.427Z,101512.52
2019-02-18T09:09:05.965Z,101506.09
2019-02-18T09:11:34.229Z,101513.12
2019-02-18T09:14:02.500Z,101511.53
2019-02-18T09:16:32.611Z,101504.83
2019-02-18T09:19:00.799Z,101506.23
2019-02-18T09:21:30.780Z,101503.02
2019-02-18T09:24:00.670Z,101503.05
2019-02-18T09:26:28.951Z,101497.13
2019-02-18T09:28:57.224Z,101503.06
2019-02-18T09:31:27.129Z,101497.13
2019-02-18T09:33:55.533Z,101496.87
2019-02-18T09:36:23.768Z,101494.45
2019-02-18T09:38:52.028Z,101502.79
2019-02-18T09:41:20.397Z,101499.25
2019-02-18T09:43:48.635Z,101503.33
2019-02-18T09:46:16.891Z,101504.90
2019-02-18T09:48:45.151Z,101501.91
2019-02-18T09:51:13.399Z,101502.96
2019-02-18T09:53:41.708Z,101504.56
2019-02-18T09:56:09.994Z,101496.95
2019-02-18T09:58:38.233Z,101498.28
2019-02-18T10:01:06.556Z,101502.03
2019-02-18T10:03:34.852Z,101498.52
2019-02-18T10:06:03.127Z,101504.69
2019-02-18T10:08:31.486Z,101495.99
2019-02-18T10:10:59.839Z,101499.19
2019-02-18T10:13:28.043Z,101498.32
2019-02-18T10:15:56.366Z,101495.58
2019-02-18T10:18:24.618Z,101491.14
2019-02-18T10:20:52.870Z,101486.49
2019-02-18T10:23:21.216Z,101485.27
2019-02-18T10:25:49.456Z,101479.69
2019-02-18T10:28:17.702Z,101483.66
2019-02-18T10:30:46.039Z,101479.44
2019-02-18T10:33:14.417Z,101481.67
2019-02-18T10:35:42.678Z,101483.67
2019-02-18T10:38:10.926Z,101476.70
2019-02-18T10:40:39.218Z,101477.81
2019-02-18T10:43:07.475Z,101476.53
2019-02-18T10:45:35.753Z,101469.48
2019-02-18T10:48:04.016Z,101462.79
2019-02-18T10:50:32.323Z,101464.98
2019-02-18T10:53:00.757Z,101453.33
2019-02-18T10:55:29.003Z,101452.30
2019-02-18T10:57:57.291Z,101455.59
2019-02-18T11:00:25.861Z,101448.56
2019-02-18T11:02:54.123Z,101447.84
2019-02-18T11:05:22.375Z,101449.55
2019-02-18T11:07:50.672Z,101446.39
2019-02-18T11:10:19.044Z,101445.69
2019-02-18T11:12:47.788Z,101436.23
2019-02-18T11:15:16.135Z,101442.58
2019-02-18T11:17:44.990Z,101434.70
2019-02-18T11:20:13.785Z,101435.48
2019-02-18T11:22:42.041Z,101436.89
2019-02-18T11:25:11.757Z,101431.48
2019-02-18T11:27:40.048Z,101435.09
2019-02-18T11:30:11.698Z,101424.83
2019-02-18T11:32:39.950Z,101425.95
2019-02-18T11:35:08.217Z,101416.53
2019-02-18T11:37:36.523Z,101419.14
2019-02-18T11:40:16.003Z,101417.66
2019-02-18T11:42:44.249Z,101415.73
2019-02-18T11:45:14.790Z,101405.32
2019-02-18T11:47:43.107Z,101401.10
2019-02-18T11:50:13.991Z,101401.06
2019-02-18T11:52:42.291Z,101402.42
2019-02-18T11:55:14.281Z,101403.02
2019-02-18T11:57:42.941Z,101402.27
2019-02-18T12:00:13.953Z,101400.05
2019-02-18T12:02:42.229Z,101390.51
2019-02-18T12:05:11.202Z,101392.41
2019-02-18T12:07:39.498Z,101387.03
2019-02-18T12:10:09.983Z,101387.09
2019-02-18T12:12:38.644Z,101384.66
2019-02-18T12:15:12.662Z,101382.89
2019-02-18T12:17:41.078Z,101385.11
2019-02-18T12:20:11.820Z,101379.17
2019-02-18T12:22:40.297Z,101374.09
2019-02-18T12:25:09.961Z,101375.45
2019-02-18T12:27:38.588Z,101369.86
2019-02-18T12:30:17.839Z,101363.30
2019-02-18T12:32:46.149Z,101369.89
2019-02-18T12:35:14.419Z,101363.33
2019-02-18T12:37:42.727Z,101357.80
2019-02-18T12:40:13.269Z,101358.77
2019-02-18T12:42:42.422Z,101354.03
2019-02-18T12:45:12.090Z,101351.48
2019-02-18T12:47:40.405Z,101345.16
2019-02-18T12:50:10.004Z,101344.91
2019-02-18T12:52:38.315Z,101338.81
2019-02-18T12:55:08.559Z,101334.30
2019-02-18T12:57:37.143Z,101331.47
2019-02-18T13:00:11.345Z,101333.66
2019-02-18T13:02:44.283Z,101320.56
2019-02-18T13:05:09.770Z,101322.25
2019-02-18T13:07:38.043Z,101326.19
2019-02-18T13:10:08.204Z,101320.24
2019-02-18T13:12:36.569Z,101315.36
2019-02-18T13:15:08.381Z,101308.61
2019-02-18T13:17:36.642Z,101311.48
2019-02-18T13:20:06.362Z,101307.65
2019-02-18T13:22:34.677Z,101301.08
2019-02-18T13:25:02.953Z,101300.43
2019-02-18T13:27:31.203Z,101299.89
2019-02-18T13:29:59.603Z,101294.65
2019-02-18T13:32:27.882Z,101299.06
2019-02-18T13:34:56.185Z,101300.67
2019-02-18T13:37:24.453Z,101289.12
2019-02-18T13:39:52.713Z,101289.70
2019-02-18T13:42:21.127Z,101292.42
2019-02-18T13:44:49.492Z,101286.47
2019-02-18T13:47:18.118Z,101287.83
2019-02-18T13:49:46.728Z,101280.55
2019-02-18T13:52:14.981Z,101277.75
2019-02-18T13:54:43.301Z,101268.99
2019-02-18T13:57:11.676Z,101271.72
2019-02-18T13:59:39.988Z,101267.87
2019-02-18T14:02:09.051Z,101262.89
2019-02-18T14:04:37.599Z,101261.70
2019-02-18T14:07:05.853Z,101253.11
2019-02-18T14:09:34.250Z,101257.94
2019-02-18T14:12:02.554Z,101253.91
2019-02-18T14:14:30.801Z,101254.16
2019-02-18T14:16:59.255Z,101258.41
2019-02-18T14:19:27.919Z,101258.73
2019-02-18T14:21:56.160Z,101255.69
2019-02-18T14:24:24.445Z,101259.29
2019-02-18T14:26:52.707Z,101254.30
2019-02-18T14:29:20.991Z,101256.70
2019-02-18T14:31:49.599Z,101255.47
2019-02-18T14:34:17.949Z,101252.06
2019-02-18T14:36:46.267Z,101250.60
2019-02-18T14:39:16.172Z,101252.73
2019-02-18T14:41:44.485Z,101245.41
2019-02-18T14:44:12.762Z,101246.05
2019-02-18T14:46:41.123Z,101243.59
2019-02-18T14:49:09.375Z,101244.78
2019-02-18T14:51:37.934Z,101233.67
2019-02-18T14:54:06.186Z,101228.23
2019-02-18T14:56:34.466Z,101229.39
2019-02-18T14:59:02.737Z,101230.27
2019-02-18T15:01:31.088Z,101218.85
2019-02-18T15:03:59.468Z,101220.13
2019-02-18T15:06:27.764Z,101221.28
2019-02-18T15:08:56.008Z,101216.55
2019-02-18T15:11:24.403Z,101217.06
2019-02-18T15:13:52.655Z,101222.59
2019-02-18T15:16:20.938Z,101210.80
2019-02-18T15:18:49.967Z,101207.55
2019-02-18T15:21:18.272Z,101208.23
2019-02-18T15:23:46.822Z,101204.62
2019-02-18T15:26:15.079Z,101202.24
2019-02-18T15:28:43.371Z,101199.22
2019-02-18T15:31:11.674Z,101188.89
2019-02-18T15:33:39.947Z,101186.98
2019-02-18T15:36:08.274Z,101179.70
2019-02-18T15:38:36.521Z,101176.66
2019-02-18T15:41:04.851Z,101175.61
2019-02-18T15:43:33.143Z,101170.52
2019-02-18T15:46:01.458Z,101174.59
2019-02-18T15:48:29.787Z,101171.48
2019-02-18T15:50:58.061Z,101179.32
2019-02-18T15:53:26.328Z,101180.70
2019-02-18T15:55:54.880Z,101179.13
2019-02-18T15:58:23.136Z,101177.45
2019-02-18T16:00:51.468Z,101174.64
2019-02-18T16:03:19.712Z,101184.00
2019-02-18T16:05:47.995Z,101179.84
2019-02-18T16:08:16.312Z,101178.38
2019-02-18T16:10:44.725Z,101174.19
2019-02-18T16:13:13.012Z,101180.35
2019-02-18T16:15:41.276Z,101172.08
2019-02-18T16:18:09.561Z,101169.35
2019-02-18T16:20:37.829Z,101165.80
2019-02-18T16:23:06.096Z,101163.86
2019-02-18T16:25:34.377Z,101163.56
2019-02-18T16:28:03.046Z,101165.95
2019-02-18T16:30:31.328Z,101161.28
2019-02-18T16:32:59.635Z,101161.80
2019-02-18T16:35:28.323Z,101158.70
2019-02-18T16:37:56.616Z,101161.41
2019-02-18T16:40:27.244Z,101159.70
2019-02-18T16:42:59.220Z,101159.92
2019-02-18T16:45:25.752Z,101159.80
2019-02-18T16:47:54.035Z,101152.45
2019-02-18T16:50:22.303Z,101153.69
2019-02-18T16:52:50.695Z,101147.22
2019-02-18T16:55:18.991Z,101144.55
2019-02-18T16:57:47.243Z,101138.81
2019-02-18T17:00:25.068Z,101141.70
2019-02-18T17:02:53.455Z,101144.11
2019-02-18T17:05:21.708Z,101145.06
2019-02-18T17:07:50.020Z,101146.05
2019-02-18T17:10:18.284Z,101152.21
2019-02-18T17:12:46.818Z,101148.36
2019-02-18T17:15:15.147Z,101152.89
2019-02-18T17:17:43.433Z,101150.35
2019-02-18T17:20:11.819Z,101154.09
2019-02-18T17:22:40.276Z,101150.73
2019-02-18T17:25:10.825Z,101152.49
2019-02-18T17:27:39.230Z,101148.52
2019-02-18T17:30:13.471Z,101148.36
2019-02-18T17:32:41.797Z,101150.37
2019-02-18T17:35:12.171Z,101147.80
2019-02-18T17:37:40.463Z,101151.81
2019-02-18T17:40:12.750Z,101155.75
2019-02-18T17:42:41.415Z,101154.04
2019-02-18T17:45:15.151Z,101158.58
2019-02-18T17:47:43.408Z,101150.16
2019-02-18T17:50:13.773Z,101154.42
2019-02-18T17:52:42.032Z,101150.48
2019-02-18T17:55:12.357Z,101151.64
2019-02-18T17:57:41.033Z,101149.61
2019-02-18T18:00:15.944Z,101149.72
2019-02-18T18:02:44.969Z,101145.80
2019-02-18T18:05:13.259Z,101150.52
2019-02-18T18:07:41.508Z,101150.03
2019-02-18T18:10:13.547Z,101140.69
2019-02-18T18:12:42.146Z,101141.12
2019-02-18T18:15:12.926Z,101140.42
2019-02-18T18:17:41.752Z,101140.81
2019-02-18T18:20:12.135Z,101145.75
2019-02-18T18:22:40.765Z,101143.08
2019-02-18T18:25:13.561Z,101142.02
2019-02-18T18:27:41.906Z,101141.75
2019-02-18T18:30:16.150Z,101133.14
2019-02-18T18:32:45.262Z,101134.31
2019-02-18T18:35:13.744Z,101134.93
2019-02-18T18:37:42.102Z,101132.02
2019-02-18T18:40:12.804Z,101137.19
2019-02-18T18:42:41.924Z,101128.63
2019-02-18T18:45:12.368Z,101122.22
2019-02-18T18:47:40.781Z,101126.08
2019-02-18T18:50:12.051Z,101121.55
2019-02-18T18:52:40.302Z,101115.37
2019-02-18T18:55:08.605Z,101110.28
2019-02-18T18:57:36.954Z,101109.80
2019-02-18T19:00:08.729Z,101109.03
2019-02-18T19:02:36.989Z,101112.02
2019-02-18T19:05:07.616Z,101110.75
2019-02-18T19:07:36.142Z,101119.40
2019-02-18T19:10:07.102Z,101118.11
2019-02-18T19:12:35.384Z,101114.13
2019-02-18T19:15:03.825Z,101109.56
2019-02-18T19:17:32.099Z,101113.92
2019-02-18T19:20:00.406Z,101118.27
2019-02-18T19:22:29.114Z,101112.89
2019-02-18T19:24:57.400Z,101118.86
2019-02-18T19:27:25.858Z,101110.24
2019-02-18T19:29:55.046Z,101120.80
2019-02-18T19:32:24.187Z,101115.95
2019-02-18T19:34:52.489Z,101111.41
2019-02-18T19:37:21.258Z,101120.04
2019-02-18T19:39:49.508Z,101121.09
2019-02-18T19:42:17.808Z,101127.84
2019-02-18T19:44:46.187Z,101124.89
2019-02-18T19:47:14.444Z,101121.63
2019-02-18T19:49:44.053Z,101121.36
2019-02-18T19:52:12.758Z,101120.28
2019-02-18T19:54:41.781Z,101120.57
2019-02-18T19:57:11.759Z,101117.57
2019-02-18T19:59:40.011Z,101120.00
2019-02-18T20:02:08.361Z,101122.70
2019-02-18T20:04:36.625Z,101119.20
2019-02-18T20:07:05.187Z,101118.38
2019-02-18T20:09:33.627Z,101127.59
2019-02-18T20:12:01.984Z,101119.49
2019-02-18T20:14:30.285Z,101122.45
2019-02-18T20:16:58.569Z,101124.91
2019-02-18T20:19:26.883Z,101126.28
2019-02-18T20:21:55.185Z,101122.77
2019-02-18T20:24:23.730Z,101123.06
2019-02-18T20:26:52.024Z,101127.39
2019-02-18T20:29:20.304Z,101125.55
2019-02-18T20:31:48.560Z,101128.55
2019-02-18T20:34:16.836Z,101124.53
2019-02-18T20:36:45.109Z,101122.13
2019-02-18T20:39:13.680Z,101124.81
2019-02-18T20:41:41.960Z,101119.67
2019-02-18T20:44:10.212Z,101123.73
2019-02-18T20:46:38.570Z,101122.14
2019-02-18T20:49:06.820Z,101125.09
2019-02-18T20:51:35.119Z,101124.56
2019-02-18T20:54:03.404Z,101122.38
2019-02-18T20:56:31.668Z,101115.92
2019-02-18T20:59:00.065Z,101107.04
2019-02-18T21:01:28.399Z,101103.28
2019-02-18T21:03:56.677Z,101097.36
2019-02-18T21:06:24.927Z,101093.09
2019-02-18T21:08:53.207Z,101097.41
2019-02-18T21:11:21.741Z,101094.75
2019-02-18T21:13:50.025Z,101095.83
2019-02-18T21:16:18.348Z,101095.02
2019-02-18T21:18:46.936Z,101097.48
2019-02-18T21:21:15.242Z,101095.33
2019-02-18T21:23:43.475Z,101088.88
2019-02-18T21:26:12.168Z,101089.72
2019-02-18T21:28:40.453Z,101092.16
2019-02-18T21:31:08.831Z,101093.25
2019-02-18T21:33:37.080Z,101091.67
2019-02-18T21:36:05.363Z,101088.44
2019-02-18T21:38:33.775Z,101099.23
2019-02-18T21:41:02.032Z,101104.63
2019-02-18T21:43:30.359Z,101101.14
2019-02-18T21:45:58.669Z,101101.42
2019-02-18T21:48:26.975Z,101095.49
2019-02-18T21:50:55.351Z,101094.70
2019-02-18T21:53:23.714Z,101095.00
2019-02-18T21:55:52.108Z,101098.49
2019-02-18T21:58:20.797Z,101092.32
2019-02-18T22:00:49.046Z,101087.22
2019-02-18T22:03:17.827Z,101081.84
2019-02-18T22:05:46.234Z,101081.05
2019-02-18T22:08:14.552Z,101082.94
2019-02-18T22:10:42.805Z,101081.86
2019-02-18T22:13:11.088Z,101080.01
2019-02-18T22:15:39.619Z,101080.02
2019-02-18T22:18:07.965Z,101078.91
2019-02-18T22:20:37.042Z,101075.16
2019-02-18T22:23:05.389Z,101076.23
2019-02-18T22:25:33.633Z,101073.57
2019-02-18T22:28:01.890Z,101071.69
2019-02-18T22:30:30.241Z,101073.04
2019-02-18T22:32:58.773Z,101079.26
2019-02-18T22:35:27.110Z,101073.33
2019-02-18T22:37:55.413Z,101057.72
2019-02-18T22:40:23.928Z,101056.39
2019-02-18T22:42:52.213Z,101054.22
2019-02-18T22:45:20.460Z,101054.26
2019-02-18T22:47:48.781Z,101056.95
2019-02-18T22:50:17.215Z,101054.27
2019-02-18T22:52:45.534Z,101061.28
2019-02-18T22:55:14.137Z,101051.88
2019-02-18T22:57:42.468Z,101057.26
2019-02-18T23:00:30.958Z,101050.26
2019-02-18T23:02:59.387Z,101047.58
2019-02-18T23:05:27.652Z,101043.83
2019-02-18T23:07:56.008Z,101043.83
2019-02-18T23:10:24.254Z,101053.52
2019-02-18T23:12:52.548Z,101055.41
2019-02-18T23:15:20.852Z,101061.31
2019-02-18T23:17:49.160Z,101062.94
2019-02-18T23:20:17.605Z,101059.45
2019-02-18T23:22:45.958Z,101053.28
2019-02-18T23:25:14.362Z,101057.04
2019-02-18T23:27:42.641Z,101049.24
2019-02-18T23:30:10.911Z,101048.41
2019-02-18T23:32:39.455Z,101046.00
2019-02-18T23:35:08.186Z,101041.45
2019-02-18T23:37:36.459Z,101046.83
2019-02-18T23:40:05.724Z,101048.45
2019-02-18T23:42:33.964Z,101039.58
2019-02-18T23:45:02.247Z,101039.58
2019-02-18T23:47:30.499Z,101038.48
2019-02-18T23:49:58.882Z,101038.48
2019-02-18T23:52:27.119Z,101042.51
2019-02-18T23:54:55.382Z,101042.51
2019-02-18T23:57:23.657Z,101044.13
2019-02-18T23:59:51.911Z,101037.95
